Time;durP1;ratioP1;P1;durP2;ratioP2;P2;SDS_P1;SDS_P2;PMS_P1;PMS_P2;Temp;Humidity;BMP_temperature;BMP_pressure;BME280_temperature;BME280_humidity;BME280_pressure;Samples;Min_cycle;Max_cycle;Signal;HPM_P1;HPM_P2
2022/10/06 00:00:36;;;;;;;2.22;0.70;;;13.90;99.90;;;-144.05;73.49;125687.94;5034560;28;20043;-81
2022/10/06 00:03:03;;;;;;;2.78;0.80;;;13.90;99.90;;;-144.05;72.63;125687.94;5034538;28;20026;-82
2022/10/06 00:05:30;;;;;;;3.25;0.60;;;13.80;99.90;;;-144.05;71.87;125687.94;5033340;28;20028;-79
2022/10/06 00:07:56;;;;;;;3.90;0.75;;;13.80;99.90;;;-144.05;71.14;125687.94;5034464;28;20033;-81
2022/10/06 00:10:23;;;;;;;2.17;0.90;;;13.70;99.90;;;-144.05;71.16;125687.94;5034305;28;20021;-82
2022/10/06 00:12:51;;;;;;;4.78;1.05;;;13.70;99.90;;;-144.05;71.50;125687.94;5033100;28;20144;-81
2022/10/06 00:15:28;;;;;;;1.30;0.50;;;13.70;99.90;;;-144.05;70.73;125687.94;5033007;28;20451;-80
2022/10/06 00:17:57;;;;;;;2.65;0.68;;;13.60;99.90;;;-144.05;71.01;125687.94;5034119;28;20034;-79
2022/10/06 00:20:25;;;;;;;3.30;1.02;;;13.60;99.90;;;-144.05;71.20;125687.94;5032980;28;20401;-81
2022/10/06 00:22:51;;;;;;;3.78;0.77;;;13.60;99.90;;;-144.05;70.74;125687.94;5034122;28;20124;-80
2022/10/06 00:25:22;;;;;;;3.17;0.95;;;13.50;99.90;;;-144.05;70.78;125687.94;5034202;28;20057;-80
2022/10/06 00:27:52;;;;;;;2.25;0.85;;;13.50;99.90;;;-144.05;71.12;125687.94;5032749;28;20029;-79
2022/10/06 00:30:26;;;;;;;3.13;0.80;;;13.50;99.90;;;-144.05;70.28;125687.94;5032731;28;20133;-79
2022/10/06 00:33:00;;;;;;;4.85;0.98;;;13.40;99.90;;;-144.05;70.79;125687.94;5034045;28;20443;-79
2022/10/06 00:35:33;;;;;;;3.88;0.55;;;13.50;99.90;;;-144.05;70.31;125687.94;5034150;28;20021;-80
2022/10/06 00:38:00;;;;;;;3.80;0.70;;;13.50;99.90;;;-144.05;70.14;125687.94;5032555;28;20026;-79
2022/10/06 00:40:28;;;;;;;1.67;1.05;;;13.40;99.90;;;-144.05;70.48;125687.94;5033838;28;20445;-79
2022/10/06 00:43:05;;;;;;;2.70;0.65;;;13.40;99.90;;;-144.05;70.34;125687.94;5034262;28;20485;-80
2022/10/06 00:45:43;;;;;;;3.83;0.80;;;13.40;99.90;;;-144.05;70.21;125687.94;5034226;28;20060;-79
2022/10/06 00:48:23;;;;;;;2.30;0.60;;;13.40;99.90;;;-144.05;70.73;125687.94;5032501;28;20031;-80
2022/10/06 00:50:56;;;;;;;5.70;1.17;;;13.30;99.90;;;-144.05;70.08;125687.94;5032528;28;20032;-80
2022/10/06 00:53:27;;;;;;;4.75;1.17;;;13.30;99.90;;;-144.05;70.25;125687.94;5032672;28;20473;-80
2022/10/06 00:55:53;;;;;;;6.43;1.00;;;13.30;99.90;;;-144.05;71.14;125687.94;5032484;28;20033;-80
2022/10/06 00:58:20;;;;;;;6.80;1.70;;;13.30;99.90;;;-144.05;70.74;125687.94;5033469;28;20033;-79
2022/10/06 01:00:54;;;;;;;5.07;0.95;;;13.20;99.90;;;-144.05;70.40;125687.94;5032993;28;20037;-81
2022/10/06 01:03:28;;;;;;;4.88;1.20;;;13.20;99.90;;;-144.05;71.37;125687.94;5033534;28;20258;-81
2022/10/06 01:05:57;;;;;;;4.22;1.08;;;13.10;99.90;;;-144.05;70.88;125687.94;5033653;28;20511;-80
2022/10/06 01:08:23;;;;;;;4.95;1.35;;;13.10;99.90;;;-144.05;71.45;125687.94;5033471;28;20032;-81
2022/10/06 01:10:49;;;;;;;4.82;1.30;;;13.00;99.90;;;-144.05;71.00;125687.94;5033407;28;20026;-79
2022/10/06 01:13:17;;;;;;;3.83;1.27;;;13.00;99.90;;;-144.05;70.83;125687.94;5032492;28;20087;-77
2022/10/06 01:16:15;;;;;;;3.75;1.10;;;13.00;99.90;;;-144.05;70.76;125687.94;5033761;28;20044;-81
2022/10/06 01:18:44;;;;;;;5.50;1.00;;;13.00;99.90;;;-144.05;71.15;125687.94;5033227;28;20061;-80
2022/10/06 01:21:40;;;;;;;4.72;1.38;;;12.90;99.90;;;-144.05;71.40;125687.94;5033213;28;20045;-80
2022/10/06 01:24:06;;;;;;;6.07;1.03;;;12.80;99.90;;;-144.05;70.99;125687.94;5033292;28;20043;-79
2022/10/06 01:26:44;;;;;;;5.47;1.35;;;12.70;99.90;;;-144.05;71.55;125687.94;5033594;28;20021;-80
2022/10/06 01:29:10;;;;;;;4.88;1.25;;;12.70;99.90;;;-144.05;71.83;125687.94;5034149;28;20064;-81
2022/10/06 01:31:36;;;;;;;7.15;1.48;;;12.60;99.90;;;-144.05;71.77;125687.94;5032922;28;20040;-80
2022/10/06 01:34:02;;;;;;;9.10;1.65;;;12.60;99.90;;;-144.05;71.80;125687.94;5032993;28;20041;-80
2022/10/06 01:36:28;;;;;;;5.85;1.75;;;12.60;99.90;;;-144.05;71.89;125687.94;5033072;28;20546;-79
2022/10/06 01:38:54;;;;;;;9.25;1.38;;;12.60;99.90;;;-144.05;71.69;125687.94;5032887;28;20045;-79
2022/10/06 01:41:21;;;;;;;4.85;1.02;;;12.50;99.90;;;-144.05;72.08;125687.94;5031716;28;20046;-79
2022/10/06 01:43:47;;;;;;;13.13;1.52;;;12.60;99.90;;;-144.05;72.17;125687.94;5031729;28;20040;-79
2022/10/06 01:46:14;;;;;;;7.60;1.33;;;12.60;99.90;;;-144.05;72.28;125687.94;5032595;28;20056;-79
2022/10/06 01:48:39;;;;;;;5.55;1.27;;;12.60;99.90;;;-144.05;71.77;125687.94;5031397;28;20369;-79
2022/10/06 01:51:07;;;;;;;8.90;1.77;;;12.60;99.90;;;-144.05;71.97;125687.94;5032822;28;20123;-79
2022/10/06 01:53:33;;;;;;;15.25;2.20;;;12.60;99.90;;;-144.05;72.54;125687.94;5031593;28;20116;-79
2022/10/06 01:55:59;;;;;;;7.10;2.03;;;12.60;99.90;;;-144.05;72.42;125687.94;5031500;28;20502;-80
2022/10/06 01:58:25;;;;;;;7.95;1.25;;;12.60;99.90;;;-144.05;72.76;125687.94;5032644;28;20113;-79
2022/10/06 02:00:51;;;;;;;4.88;1.38;;;12.60;99.90;;;-144.05;72.83;125687.94;5031219;28;20463;-79
2022/10/06 02:03:17;;;;;;;7.38;1.90;;;12.50;99.90;;;-144.05;73.25;125687.94;5031359;28;20084;-81
2022/10/06 02:05:43;;;;;;;6.93;1.60;;;12.50;99.90;;;-144.05;73.80;125687.94;5032478;28;20033;-81
2022/10/06 02:08:09;;;;;;;8.68;1.60;;;12.50;99.90;;;-144.05;73.41;125687.94;5032510;28;20072;-81
2022/10/06 02:10:35;;;;;;;6.75;1.40;;;12.50;99.90;;;-144.05;72.98;125687.94;5031231;28;20029;-80
2022/10/06 02:13:01;;;;;;;12.25;1.85;;;12.50;99.90;;;-144.05;73.03;125687.94;5030232;28;20056;-79
2022/10/06 02:15:27;;;;;;;7.60;1.75;;;12.40;99.90;;;-144.05;73.15;125687.94;5038496;28;20037;-81
2022/10/06 02:17:54;;;;;;;9.38;1.60;;;12.30;99.90;;;-144.05;73.83;125687.94;5045805;28;20493;-81
2022/10/06 02:20:21;;;;;;;10.10;2.00;;;12.30;99.90;;;-144.05;73.84;125687.94;5046367;28;20040;-83
2022/10/06 02:22:47;;;;;;;10.55;1.90;;;12.30;99.90;;;-144.05;74.11;125687.94;5054773;28;20195;-79
2022/10/06 02:25:12;;;;;;;9.23;1.58;;;12.30;99.90;;;-144.05;73.21;125687.94;5054442;28;20045;-84
2022/10/06 02:27:39;;;;;;;6.22;1.80;;;12.30;99.90;;;-144.05;73.09;125687.94;5049166;28;20059;-81
2022/10/06 02:30:07;;;;;;;10.05;1.60;;;12.30;99.90;;;-144.05;73.64;125687.94;5050188;28;20112;-82
2022/10/06 02:32:37;;;;;;;10.45;2.05;;;12.20;99.90;;;-144.05;73.54;125687.94;5045475;28;20032;-81
2022/10/06 02:35:05;;;;;;;9.23;1.65;;;12.30;99.90;;;-144.05;73.47;125687.94;5032712;28;20025;-79
2022/10/06 02:37:32;;;;;;;9.88;1.65;;;12.20;99.90;;;-144.05;73.32;125687.94;5030756;28;20031;-79
2022/10/06 02:39:58;;;;;;;12.55;2.00;;;12.20;99.90;;;-144.05;73.27;125687.94;5032009;28;20072;-81
2022/10/06 02:42:24;;;;;;;8.20;1.70;;;12.10;99.90;;;-144.05;73.28;125687.94;5031884;28;20104;-79
2022/10/06 02:44:51;;;;;;;10.38;2.30;;;12.10;99.90;;;-144.05;74.01;125687.94;5031716;28;20099;-79
2022/10/06 02:47:18;;;;;;;6.18;1.55;;;12.10;99.90;;;-144.05;73.39;125687.94;5030288;28;20060;-79
2022/10/06 02:49:45;;;;;;;11.07;2.28;;;12.10;99.90;;;-144.05;73.49;125687.94;5031629;28;20480;-80
2022/10/06 02:52:11;;;;;;;6.95;1.60;;;12.10;99.90;;;-144.05;73.50;125687.94;5030322;28;20045;-80
2022/10/06 02:54:37;;;;;;;12.25;1.98;;;12.00;99.90;;;-144.05;74.06;125687.94;5030691;28;20392;-80
2022/10/06 02:57:03;;;;;;;7.30;1.85;;;12.00;99.90;;;-144.05;74.66;125687.94;5030274;28;20068;-79
2022/10/06 02:59:28;;;;;;;8.93;2.10;;;12.00;99.90;;;-144.05;74.48;125687.94;5031653;28;20104;-79
2022/10/06 03:01:54;;;;;;;11.45;1.88;;;12.00;99.90;;;-144.05;74.66;125687.94;5031585;28;20500;-80
2022/10/06 03:04:20;;;;;;;11.02;2.28;;;12.00;99.90;;;-144.05;74.43;125687.94;5030120;28;20109;-80
2022/10/06 03:06:48;;;;;;;9.68;2.60;;;12.00;99.90;;;-144.05;74.42;125687.94;5031642;28;20441;-79
2022/10/06 03:09:14;;;;;;;13.40;2.15;;;11.90;99.90;;;-144.05;74.01;125687.94;5030246;28;20120;-80
2022/10/06 03:11:42;;;;;;;10.68;2.08;;;11.90;99.90;;;-144.05;74.35;125687.94;5031305;28;20033;-79
2022/10/06 03:14:08;;;;;;;11.93;2.35;;;11.80;99.90;;;-144.05;74.37;125687.94;5031535;28;20053;-79
2022/10/06 03:16:39;;;;;;;10.93;2.67;;;11.90;99.90;;;-144.05;74.41;125687.94;5031263;28;20039;-79
2022/10/06 03:19:08;;;;;;;13.82;2.25;;;11.90;99.90;;;-144.05;74.01;125687.94;5099807;23;20128;-80
2022/10/06 03:21:42;;;;;;;10.80;2.20;;;12.00;99.90;;;-144.05;73.83;125687.94;5012445;28;20022;-80
2022/10/06 03:24:09;;;;;;;11.25;3.03;;;12.00;99.90;;;-144.05;73.59;125687.94;5013096;28;20064;-80
2022/10/06 03:26:43;;;;;;;9.35;2.25;;;12.00;99.90;;;-144.05;73.39;125687.94;5016930;28;20033;-80
2022/10/06 03:29:10;;;;;;;9.32;2.88;;;12.10;99.90;;;-144.05;73.15;125687.94;5018868;28;20108;-81
2022/10/06 03:31:38;;;;;;;10.40;2.63;;;12.20;99.90;;;-144.05;72.57;125687.94;5018236;28;20026;-81
2022/10/06 03:34:04;;;;;;;10.48;2.17;;;12.20;99.90;;;-144.05;72.57;125687.94;5017025;28;20456;-79
2022/10/06 03:36:33;;;;;;;9.25;2.22;;;12.20;99.90;;;-144.05;71.95;125687.94;5016471;28;20025;-81
2022/10/06 03:39:02;;;;;;;15.18;2.50;;;12.20;99.90;;;-144.05;72.16;125687.94;5018146;28;20060;-82
2022/10/06 03:41:33;;;;;;;8.73;2.35;;;12.20;99.90;;;-144.05;72.09;125687.94;5016480;28;20401;-79
2022/10/06 03:44:00;;;;;;;9.65;2.40;;;12.20;99.90;;;-144.05;72.40;125687.94;5017907;28;20033;-79
2022/10/06 03:46:31;;;;;;;14.52;2.20;;;12.10;99.90;;;-144.05;72.64;125687.94;5016872;28;20282;-82
2022/10/06 03:48:58;;;;;;;7.22;1.88;;;12.10;99.90;;;-144.05;72.64;125687.94;5018063;28;20022;-81
2022/10/06 03:51:37;;;;;;;7.22;2.08;;;12.10;99.90;;;-144.05;72.81;125687.94;5016342;28;20616;-80
2022/10/06 03:54:04;;;;;;;12.13;2.20;;;12.00;99.90;;;-144.05;73.29;125687.94;5017890;28;20026;-79
2022/10/06 03:56:38;;;;;;;13.65;2.72;;;12.00;99.90;;;-144.05;73.01;125687.94;5017583;28;20034;-81
2022/10/06 03:59:12;;;;;;;11.43;2.10;;;12.00;99.90;;;-144.05;73.07;125687.94;5017390;28;20022;-81
2022/10/06 04:01:46;;;;;;;8.52;1.90;;;11.90;99.90;;;-144.05;73.81;125687.94;5017633;28;20026;-81
2022/10/06 04:04:13;;;;;;;8.85;2.55;;;11.80;99.90;;;-144.05;74.03;125687.94;5017416;28;20092;-82
2022/10/06 04:06:43;;;;;;;10.57;2.30;;;11.80;99.90;;;-144.05;74.65;125687.94;5015065;28;20032;-80
2022/10/06 04:09:12;;;;;;;9.63;2.08;;;11.80;99.90;;;-144.05;74.61;125687.94;5015056;28;20033;-80
2022/10/06 04:11:40;;;;;;;6.20;1.92;;;11.80;99.90;;;-144.05;74.39;125687.94;5016734;28;20080;-79
2022/10/06 04:14:11;;;;;;;6.97;1.70;;;11.80;99.90;;;-144.05;74.48;125687.94;5016427;28;20080;-82
2022/10/06 04:16:48;;;;;;;8.57;2.15;;;11.70;99.90;;;-144.05;75.21;125687.94;5016684;28;20022;-81
2022/10/06 04:19:16;;;;;;;14.48;1.85;;;11.70;99.90;;;-144.05;75.41;125687.94;5017823;28;20053;-79
2022/10/06 04:21:45;;;;;;;8.80;2.15;;;11.60;99.90;;;-144.05;75.56;125687.94;5016936;28;20026;-83
2022/10/06 04:24:12;;;;;;;8.25;1.55;;;11.60;99.90;;;-144.05;74.92;125687.94;5016458;28;20041;-80
2022/10/06 04:26:45;;;;;;;6.30;1.83;;;11.60;99.90;;;-144.05;75.12;125687.94;5015458;28;20480;-80
2022/10/06 04:29:12;;;;;;;7.85;2.00;;;11.50;99.90;;;-144.05;75.38;125687.94;5016989;28;20026;-80
2022/10/06 04:31:41;;;;;;;9.07;1.90;;;11.50;99.90;;;-144.05;75.30;125687.94;5016526;28;20028;-80
2022/10/06 04:34:10;;;;;;;13.50;2.78;;;11.50;99.90;;;-144.05;75.55;125687.94;5015384;28;20516;-79
2022/10/06 04:36:40;;;;;;;11.27;2.30;;;11.50;99.90;;;-144.05;75.31;125687.94;5015377;28;20053;-80
2022/10/06 04:39:11;;;;;;;13.93;2.10;;;11.50;99.90;;;-144.05;75.37;125687.94;5015998;28;20030;-80
2022/10/06 04:41:41;;;;;;;12.60;2.33;;;11.40;99.90;;;-144.05;75.31;125687.94;5017129;28;20480;-80
2022/10/06 04:44:07;;;;;;;7.03;1.95;;;11.40;99.90;;;-144.05;75.57;125687.94;5016823;28;20048;-79
2022/10/06 04:46:34;;;;;;;14.18;2.72;;;11.40;99.90;;;-144.05;75.38;125687.94;5016293;28;20030;-79
2022/10/06 04:49:01;;;;;;;9.75;1.90;;;11.30;99.90;;;-144.05;75.93;125687.94;5014841;28;20481;-81
2022/10/06 04:51:27;;;;;;;16.75;2.17;;;11.30;99.90;;;-144.05;75.99;125687.94;5016098;28;20113;-79
2022/10/06 04:53:53;;;;;;;11.90;2.63;;;11.30;99.90;;;-144.05;75.62;125687.94;5014883;28;20112;-82
2022/10/06 04:56:28;;;;;;;10.57;2.03;;;11.30;99.90;;;-144.05;75.99;125687.94;5014646;28;20455;-80
2022/10/06 04:58:56;;;;;;;7.00;1.70;;;11.20;99.90;;;-144.05;76.25;125687.94;5014782;28;20404;-80
2022/10/06 05:01:32;;;;;;;7.72;2.47;;;11.30;99.90;;;-144.05;76.00;125687.94;5016322;28;20034;-79
2022/10/06 05:04:01;;;;;;;11.57;2.90;;;11.20;99.90;;;-144.05;76.22;125687.94;5016464;28;20106;-81
2022/10/06 05:06:32;;;;;;;10.63;2.25;;;11.10;99.90;;;-144.05;76.65;125687.94;5015184;28;20099;-80
2022/10/06 05:09:07;;;;;;;9.60;2.08;;;11.20;99.90;;;-144.05;76.54;125687.94;5016090;28;20061;-79
2022/10/06 05:11:33;;;;;;;13.45;2.28;;;11.10;99.90;;;-144.05;76.57;125687.94;5016825;28;20026;-78
2022/10/06 05:14:00;;;;;;;15.20;3.33;;;11.10;99.90;;;-144.05;76.96;125687.94;5015812;28;20025;-78
2022/10/06 05:16:29;;;;;;;13.52;2.55;;;11.00;99.90;;;-144.05;76.86;125687.94;5015539;28;20071;-80
2022/10/06 05:18:56;;;;;;;14.90;2.63;;;11.00;99.90;;;-144.05;77.33;125687.94;5016556;28;20064;-81
2022/10/06 05:21:31;;;;;;;15.20;2.30;;;11.00;99.90;;;-144.05;76.64;125687.94;5016266;28;20532;-79
2022/10/06 05:23:57;;;;;;;17.10;2.75;;;11.00;99.90;;;-144.05;76.81;125687.94;5016667;28;20485;-78
2022/10/06 05:26:29;;;;;;;16.83;2.90;;;10.90;99.90;;;-144.05;76.92;125687.94;5016582;28;20025;-81
2022/10/06 05:28:56;;;;;;;13.65;2.95;;;10.90;99.90;;;-144.05;77.25;125687.94;5014801;28;20409;-80
2022/10/06 05:31:30;;;;;;;12.27;2.28;;;10.80;99.90;;;-144.05;77.75;125687.94;5016611;28;20428;-81
2022/10/06 05:33:58;;;;;;;13.30;2.40;;;10.80;99.90;;;-144.05;77.69;125687.94;5016011;28;20034;-82
2022/10/06 05:36:32;;;;;;;12.63;2.90;;;10.80;99.90;;;-144.05;77.34;125687.94;5015343;28;20061;-79
2022/10/06 05:39:00;;;;;;;16.80;2.75;;;10.80;99.90;;;-144.05;77.89;125687.94;5015487;28;20121;-83
2022/10/06 05:41:30;;;;;;;9.60;3.15;;;10.90;99.90;;;-144.05;77.11;125687.94;5016423;28;20033;-80
2022/10/06 05:43:57;;;;;;;13.43;2.55;;;10.90;99.90;;;-144.05;76.92;125687.94;5015289;28;20133;-82
2022/10/06 05:46:31;;;;;;;13.73;2.55;;;10.80;99.90;;;-144.05;77.17;125687.94;5016301;28;20105;-81
2022/10/06 05:49:05;;;;;;;15.38;2.53;;;10.80;99.90;;;-144.05;77.34;125687.94;5015320;28;20041;-78
2022/10/06 05:51:35;;;;;;;19.45;2.92;;;10.80;99.90;;;-144.05;77.31;125687.94;5016461;28;20049;-80
2022/10/06 05:54:02;;;;;;;12.68;2.55;;;10.80;99.90;;;-144.05;77.56;125687.94;5016682;28;20054;-82
2022/10/06 05:56:33;;;;;;;13.88;3.00;;;10.80;99.90;;;-144.05;77.33;125687.94;5016183;28;20497;-82
2022/10/06 05:59:00;;;;;;;10.48;3.42;;;10.80;99.90;;;-144.05;76.97;125687.94;5014840;28;20065;-81
2022/10/06 06:01:42;;;;;;;15.80;2.63;;;10.80;99.90;;;-144.05;76.82;125687.94;5013969;28;20021;-82
2022/10/06 06:04:12;;;;;;;12.85;2.45;;;10.80;99.90;;;-144.05;76.82;125687.94;5030406;28;20026;-81
2022/10/06 06:06:43;;;;;;;12.32;3.13;;;10.80;99.90;;;-144.05;76.89;125687.94;5015731;28;20489;-80
2022/10/06 06:09:11;;;;;;;13.23;2.45;;;10.80;99.90;;;-144.05;76.61;125687.94;5015161;28;20030;-82
2022/10/06 06:11:42;;;;;;;9.93;2.92;;;10.80;99.90;;;-144.05;76.14;125687.94;5015484;28;20188;-80
2022/10/06 06:14:14;;;;;;;8.65;2.47;;;10.90;99.90;;;-144.05;75.65;125687.94;5015503;28;20021;-82
2022/10/06 06:16:42;;;;;;;14.07;2.90;;;11.00;99.90;;;-144.05;75.43;125687.94;5015648;28;20049;-81
2022/10/06 06:19:11;;;;;;;14.48;3.08;;;11.00;99.90;;;-144.05;75.25;125687.94;5013912;28;20045;-80
2022/10/06 06:21:39;;;;;;;7.47;1.67;;;11.10;99.90;;;-144.05;74.76;125687.94;5015513;28;20308;-82
2022/10/06 06:24:06;;;;;;;9.55;2.17;;;11.20;99.90;;;-144.05;74.63;125687.94;5015381;28;20030;-79
2022/10/06 06:26:36;;;;;;;12.45;3.72;;;11.30;99.90;;;-144.05;74.17;125687.94;5015019;28;20217;-83
2022/10/06 06:29:05;;;;;;;14.55;2.50;;;11.40;99.90;;;-144.05;73.59;125687.94;5013964;28;20033;-81
2022/10/06 06:31:38;;;;;;;11.38;2.28;;;11.50;99.90;;;-144.05;72.78;125687.94;5015615;28;20548;-79
2022/10/06 06:34:06;;;;;;;13.48;2.75;;;11.60;99.90;;;-144.05;72.75;125687.94;5038244;28;20029;-79
2022/10/06 06:36:40;;;;;;;12.10;2.72;;;11.60;99.90;;;-144.05;72.45;125687.94;5014284;28;20136;-80
2022/10/06 06:39:10;;;;;;;16.55;2.55;;;11.70;99.90;;;-144.05;72.12;125687.94;5013201;28;20030;-79
2022/10/06 06:41:46;;;;;;;11.55;2.67;;;11.70;99.90;;;-144.05;72.14;125687.94;5014994;28;20568;-80
2022/10/06 06:44:13;;;;;;;13.90;2.95;;;11.70;99.90;;;-144.05;71.54;125687.94;5013491;28;20034;-80
2022/10/06 06:46:42;;;;;;;18.63;3.22;;;11.80;99.90;;;-144.05;70.84;125687.94;5017895;28;20397;-81
2022/10/06 06:49:10;;;;;;;8.32;2.25;;;11.90;99.90;;;-144.05;70.81;125687.94;5021789;28;20032;-81
2022/10/06 06:51:41;;;;;;;12.00;2.20;;;11.90;99.90;;;-144.05;70.00;125687.94;5020407;28;20497;-80
2022/10/06 06:54:10;;;;;;;13.13;2.55;;;12.00;99.90;;;-144.05;69.29;125687.94;5015626;28;20033;-81
2022/10/06 06:56:37;;;;;;;13.05;2.58;;;12.10;99.90;;;-144.05;69.04;125687.94;5015055;28;20048;-80
2022/10/06 06:59:10;;;;;;;20.85;2.45;;;12.30;99.90;;;-144.05;68.81;125687.94;5014716;28;20030;-80
2022/10/06 07:01:45;;;;;;;13.65;3.15;;;12.40;99.90;;;-144.05;67.70;125687.94;5014008;28;20458;-80
2022/10/06 07:04:14;;;;;;;;;;;12.60;99.90;;;-144.05;67.02;125687.94;5014309;28;20025;-83
2022/10/06 07:06:55;;;;;;;11.25;2.47;;;12.70;99.90;;;-144.05;65.91;125687.94;5014667;28;19928;-80
2022/10/06 07:09:22;;;;;;;18.45;2.78;;;12.90;99.90;;;-144.05;65.67;125687.94;5014162;28;20037;-82
2022/10/06 07:11:49;;;;;;;10.75;2.17;;;13.10;99.90;;;-144.05;65.72;125687.94;5014557;28;20420;-81
2022/10/06 07:14:15;;;;;;;19.35;2.97;;;13.20;99.90;;;-144.05;65.01;125687.94;5016697;28;20025;-81
2022/10/06 07:25:06;;;;;;;12.32;2.67;;;13.90;99.90;;;-144.05;62.22;125687.94;5015822;28;20092;-81
2022/10/06 07:27:41;;;;;;;19.10;3.25;;;14.10;99.90;;;-144.05;61.30;125687.94;5014711;28;20034;-80
2022/10/06 07:30:19;;;;;;;13.95;2.67;;;14.20;99.90;;;-144.05;60.92;125687.94;5016108;28;20122;-81
2022/10/06 07:32:51;;;;;;;13.75;2.47;;;14.30;99.90;;;-144.05;60.42;125687.94;5015144;28;20085;-80
2022/10/06 07:35:20;;;;;;;14.80;2.92;;;14.40;99.90;;;-144.05;59.89;125687.94;5014710;28;20037;-80
2022/10/06 07:37:50;;;;;;;11.57;2.67;;;14.50;99.90;;;-144.05;59.55;125687.94;5014788;28;20034;-80
2022/10/06 07:40:17;;;;;;;16.48;2.88;;;14.70;99.90;;;-144.05;58.58;125687.94;5015531;28;20030;-80
2022/10/06 07:42:50;;;;;;;14.40;2.72;;;14.80;99.90;;;-144.05;58.75;125687.94;5015557;28;20037;-80
2022/10/06 07:45:40;;;;;;;13.48;2.60;;;15.00;99.90;;;-144.05;57.61;125687.94;5015895;28;20036;-81
2022/10/06 07:48:19;;;;;;;15.95;3.55;;;15.20;99.90;;;-144.05;56.96;125687.94;5014433;28;20113;-81
2022/10/06 07:50:49;;;;;;;18.25;3.13;;;15.40;99.90;;;-144.05;56.20;125687.94;5015485;28;20022;-83
2022/10/06 07:53:19;;;;;;;11.93;2.40;;;15.50;99.90;;;-144.05;55.76;125687.94;5014679;28;20049;-81
2022/10/06 07:55:47;;;;;;;12.68;2.80;;;15.60;99.90;;;-144.05;55.73;125687.94;5015910;28;20030;-80
2022/10/06 07:58:25;;;;;;;18.75;3.13;;;15.70;99.90;;;-144.05;55.87;125687.94;5015486;28;20105;-81
2022/10/06 08:00:53;;;;;;;13.10;2.60;;;15.80;99.90;;;-144.05;54.84;125687.94;5015095;28;20076;-81
2022/10/06 08:03:20;;;;;;;15.48;2.88;;;15.90;99.90;;;-144.05;54.62;125687.94;5015713;28;20033;-81
2022/10/06 08:05:56;;;;;;;15.85;2.88;;;16.10;99.90;;;-144.05;54.74;125687.94;5015180;28;20511;-79
2022/10/06 08:08:22;;;;;;;12.30;3.70;;;16.10;99.90;;;-144.05;54.05;125687.94;5013799;28;20025;-80
2022/10/06 08:10:57;;;;;;;11.75;2.67;;;16.20;99.90;;;-144.05;53.94;125687.94;5016882;28;20025;-80
2022/10/06 08:13:25;;;;;;;12.80;2.58;;;16.20;99.90;;;-144.05;53.43;125687.94;5019145;28;20099;-82
2022/10/06 08:15:55;;;;;;;7.10;2.25;;;16.40;99.90;;;-144.05;52.85;125687.94;5019199;28;20065;-79
2022/10/06 08:18:24;;;;;;;13.00;2.53;;;16.50;99.90;;;-144.05;52.72;125687.94;5018830;28;20028;-79
2022/10/06 08:20:49;;;;;;;19.08;3.40;;;16.60;99.90;;;-144.05;52.38;125687.94;5019078;28;20026;-81
2022/10/06 08:23:15;;;;;;;13.18;2.63;;;16.70;99.90;;;-144.05;52.79;125687.94;5018068;28;20026;-80
2022/10/06 08:25:52;;;;;;;16.13;2.92;;;16.60;99.90;;;-144.05;52.91;125687.94;5018835;28;20027;-81
2022/10/06 08:28:20;;;;;;;19.13;3.47;;;16.60;99.90;;;-144.05;53.21;125687.94;5034379;28;20041;-81
2022/10/06 08:30:50;;;;;;;15.23;3.47;;;16.50;99.90;;;-144.05;53.26;125687.94;5018749;28;20026;-82
2022/10/06 08:33:16;;;;;;;12.85;3.10;;;16.50;99.90;;;-144.05;52.06;125687.94;5017427;28;20029;-81
2022/10/06 08:35:41;;;;;;;15.80;2.90;;;16.70;99.90;;;-144.05;52.17;125687.94;5019511;28;20029;-80
2022/10/06 08:38:07;;;;;;;18.42;3.28;;;16.60;99.90;;;-144.05;52.93;125687.94;5017149;28;20045;-80
2022/10/06 08:40:34;;;;;;;18.73;3.50;;;16.60;99.90;;;-144.05;52.61;125687.94;5017251;28;20112;-81
2022/10/06 08:43:01;;;;;;;14.93;2.72;;;16.60;99.90;;;-144.05;51.95;125687.94;5017291;28;20029;-80
2022/10/06 08:45:39;;;;;;;17.40;2.90;;;16.80;99.90;;;-144.05;51.04;125687.94;5016837;28;20034;-79
2022/10/06 08:48:28;;;;;;;14.18;2.97;;;17.00;99.90;;;-144.05;50.31;125687.94;5017898;28;20121;-80
2022/10/06 08:51:28;;;;;;;13.35;2.60;;;17.30;99.90;;;-144.05;50.61;125687.94;5018530;28;20097;-81
2022/10/06 08:54:47;;;;;;;13.02;2.65;;;17.20;99.90;;;-144.05;51.06;125687.94;5118885;27;1232581;-80
2022/10/06 08:57:27;;;;;;;11.82;2.75;;;17.20;99.90;;;-144.05;50.36;125687.94;5130662;27;20039;-80
2022/10/06 08:59:53;;;;;;;12.65;2.90;;;17.20;99.90;;;-144.05;50.50;125687.94;5127278;28;20028;-81
2022/10/06 09:02:40;;;;;;;13.20;2.92;;;17.30;99.90;;;-144.05;49.99;125687.94;5110925;28;20039;-80
2022/10/06 09:05:18;;;;;;;13.35;2.95;;;17.20;99.90;;;-144.05;51.21;125687.94;5109428;28;20027;-82
2022/10/06 09:08:29;;;;;;;13.85;2.60;;;17.00;99.90;;;-144.05;50.94;125687.94;5113942;22;20114;-86
2022/10/06 09:11:20;;;;;;;18.08;3.25;;;17.00;99.90;;;-144.05;51.14;125687.94;5071939;28;20020;-86
2022/10/06 09:14:02;;;;;;;15.10;2.53;;;17.10;99.90;;;-144.05;50.10;125687.94;5071117;28;20060;-86
2022/10/06 09:16:40;;;;;;;13.15;3.58;;;17.40;99.90;;;-144.05;49.03;125687.94;5071503;28;20029;-87
2022/10/06 09:19:27;;;;;;;15.95;2.95;;;17.60;99.90;;;-144.05;49.79;125687.94;5051105;28;20106;-83
2022/10/06 09:21:53;;;;;;;13.60;2.97;;;17.30;99.90;;;-144.05;49.28;125687.94;5049966;28;20060;-85
2022/10/06 09:24:41;;;;;;;14.25;2.70;;;17.40;99.90;;;-144.05;48.97;125687.94;5050030;28;20025;-85
2022/10/06 09:27:32;;;;;;;14.13;3.42;;;17.60;99.90;;;-144.05;47.89;125687.94;5051412;28;20040;-84
2022/10/06 09:30:03;;;;;;;21.27;3.28;;;17.80;99.90;;;-144.05;48.03;125687.94;5053370;28;20021;-85
2022/10/06 09:32:32;;;;;;;16.60;3.03;;;17.90;99.90;;;-144.05;47.88;125687.94;5065671;28;20041;-80
2022/10/06 09:35:03;;;;;;;11.40;2.50;;;18.10;99.90;;;-144.05;48.32;125687.94;5069895;28;20029;-80
2022/10/06 09:38:03;;;;;;;11.07;2.78;;;18.30;99.90;;;-144.05;47.25;125687.94;5086723;28;20025;-83
2022/10/06 09:40:48;;;;;;;14.18;3.28;;;18.40;99.90;;;-144.05;45.44;125687.94;5065908;28;20022;-81
2022/10/06 09:43:34;;;;;;;12.25;2.30;;;18.70;99.90;;;-144.05;47.10;125687.94;5071734;28;20029;-82
2022/10/06 09:46:30;;;;;;;11.18;2.60;;;18.50;99.90;;;-144.05;47.19;125687.94;5068680;28;20140;-84
2022/10/06 09:49:19;;;;;;;18.42;2.45;;;18.40;99.90;;;-144.05;47.22;125687.94;5063048;28;20033;-84
2022/10/06 09:52:14;;;;;;;12.80;2.78;;;18.60;99.90;;;-144.05;46.25;125687.94;5062058;28;20025;-84
2022/10/06 09:54:43;;;;;;;11.85;2.38;;;18.20;99.90;;;-144.05;47.00;125687.94;5055025;28;20032;-85
2022/10/06 09:57:25;;;;;;;10.98;2.15;;;18.40;99.90;;;-144.05;47.44;125687.94;5050063;28;20483;-82
2022/10/06 09:59:52;;;;;;;10.05;2.28;;;18.20;99.90;;;-144.05;47.69;125687.94;5048463;28;20029;-83
2022/10/06 10:02:35;;;;;;;12.75;3.20;;;18.30;99.90;;;-144.05;46.64;125687.94;5050242;28;20488;-80
2022/10/06 10:05:06;;;;;;;14.25;2.53;;;18.40;99.90;;;-144.05;47.18;125687.94;5038662;28;20052;-83
2022/10/06 10:07:35;;;;;;;10.75;2.58;;;18.60;99.90;;;-144.05;47.45;125687.94;5051092;28;20069;-82
2022/10/06 10:10:23;;;;;;;14.40;2.78;;;18.60;99.90;;;-144.05;46.34;125687.94;5035351;28;20021;-85
2022/10/06 10:12:51;;;;;;;16.77;2.75;;;18.60;99.90;;;-144.05;45.57;125687.94;5036305;28;20057;-83
2022/10/06 10:15:17;;;;;;;10.13;2.67;;;18.80;99.90;;;-144.05;45.39;125687.94;5039610;28;20032;-82
2022/10/06 10:18:15;;;;;;;10.57;2.30;;;18.60;99.90;;;-144.05;46.55;125687.94;5037420;28;20107;-83
2022/10/06 10:21:09;;;;;;;14.98;2.55;;;18.40;99.90;;;-144.05;46.82;125687.94;5032941;28;20029;-83